Terminal Aerodrome Forecast
Issued by NWS Melbourne, FL

Home | Current Version | Previous Version | Text Only | Print | Product List | Glossary On
Versions: 1 2 3 4 5 6 7 8 9 10 11 12 13
000
FTUS42 KMLB 050921 AAA
TAFDAB
TAF AMD
KDAB 050921Z 0509/0606 06009KT P6SM VCSH SCT025 BKN040 BKN250
      TEMPO 0509/0511 4SM SHRA BKN025
     FM051400 07014G22KT P6SM VCSH BKN040 BKN250
     FM060000 07010KT P6SM SCT040 SCT250=

USA.gov is the U.S. government's official web portal to all federal, state and local government web resources and services.